createdAt,value
2023-01-18T00:00:20.444Z,13.93
2023-01-18T00:00:43.169Z,13.50
2023-01-18T00:01:07.303Z,12.88
2023-01-18T00:01:30.454Z,13.35
2023-01-18T00:01:53.344Z,13.68
2023-01-18T00:02:16.058Z,13.82
2023-01-18T00:02:38.825Z,13.70
2023-01-18T00:03:02.953Z,13.48
2023-01-18T00:03:25.705Z,14.10
2023-01-18T00:03:48.433Z,13.70
2023-01-18T00:04:11.029Z,13.82
2023-01-18T00:04:33.796Z,13.93
2023-01-18T00:04:56.507Z,13.07
2023-01-18T00:05:19.844Z,13.25
2023-01-18T00:05:42.765Z,13.73
2023-01-18T00:06:10.130Z,14.43
2023-01-18T00:06:32.809Z,14.55
2023-01-18T00:06:57.505Z,13.90
2023-01-18T00:07:20.249Z,14.23
2023-01-18T00:07:42.983Z,13.63
2023-01-18T00:08:06.149Z,13.30
2023-01-18T00:08:29.736Z,13.45
2023-01-18T00:08:54.399Z,13.85
2023-01-18T00:09:17.128Z,13.98
2023-01-18T00:09:39.843Z,13.70
2023-01-18T00:10:02.614Z,13.07
2023-01-18T00:10:25.374Z,13.02
2023-01-18T00:10:48.039Z,13.02
2023-01-18T00:11:12.023Z,12.85
2023-01-18T00:11:34.729Z,13.30
2023-01-18T00:11:57.455Z,12.70
2023-01-18T00:12:20.393Z,12.40
2023-01-18T00:12:45.573Z,13.25
2023-01-18T00:13:08.370Z,12.65
2023-01-18T00:13:31.087Z,12.43
2023-01-18T00:13:54.444Z,12.60
2023-01-18T00:14:19.594Z,12.55
2023-01-18T00:14:42.340Z,12.13
2023-01-18T00:15:06.268Z,12.82
2023-01-18T00:15:28.974Z,13.30
2023-01-18T00:15:51.849Z,13.35
2023-01-18T00:16:15.492Z,12.85
2023-01-18T00:16:39.763Z,13.07
2023-01-18T00:17:02.452Z,13.27
2023-01-18T00:17:25.132Z,13.35
2023-01-18T00:17:51.833Z,12.93
2023-01-18T00:18:16.051Z,12.38
2023-01-18T00:18:38.844Z,12.65
2023-01-18T00:19:01.625Z,12.30
2023-01-18T00:19:24.323Z,12.45
2023-01-18T00:19:47.019Z,13.13
2023-01-18T00:20:11.767Z,13.27
2023-01-18T00:20:34.559Z,12.45
2023-01-18T00:21:01.298Z,12.55
2023-01-18T00:21:24.363Z,13.55
2023-01-18T00:21:47.119Z,12.65
2023-01-18T00:22:09.775Z,12.30
2023-01-18T00:22:32.428Z,12.95
2023-01-18T00:22:57.720Z,13.20
2023-01-18T00:23:20.846Z,12.95
2023-01-18T00:23:43.585Z,12.95
2023-01-18T00:24:11.104Z,12.23
2023-01-18T00:24:36.368Z,12.73
2023-01-18T00:24:59.034Z,12.40
2023-01-18T00:25:26.563Z,12.45
2023-01-18T00:25:49.188Z,12.27
2023-01-18T00:26:12.446Z,12.57
2023-01-18T00:26:35.154Z,12.32
2023-01-18T00:26:57.851Z,12.55
2023-01-18T00:27:21.278Z,12.50
2023-01-18T00:27:46.925Z,12.60
2023-01-18T00:28:09.675Z,12.97
2023-01-18T00:28:33.588Z,12.13
2023-01-18T00:28:57.510Z,12.52
2023-01-18T00:29:20.343Z,12.82
2023-01-18T00:29:43.020Z,12.93
2023-01-18T00:30:07.687Z,12.27
2023-01-18T00:30:30.455Z,12.60
2023-01-18T00:30:53.194Z,12.98
2023-01-18T00:31:16.876Z,12.57
2023-01-18T00:31:40.445Z,12.60
2023-01-18T00:32:03.359Z,13.23
2023-01-18T00:32:26.061Z,12.93
2023-01-18T00:32:48.806Z,13.20
2023-01-18T00:33:11.634Z,12.27
2023-01-18T00:33:35.819Z,12.20
2023-01-18T00:33:58.569Z,12.32
2023-01-18T00:34:21.300Z,12.50
2023-01-18T00:34:44.013Z,12.93
2023-01-18T00:35:08.340Z,12.90
2023-01-18T00:35:32.393Z,12.27
2023-01-18T00:35:56.993Z,12.70
2023-01-18T00:36:19.710Z,13.15
2023-01-18T00:36:42.685Z,14.00
2023-01-18T00:37:06.466Z,15.57
2023-01-18T00:37:29.121Z,14.50
2023-01-18T00:37:52.239Z,14.45
2023-01-18T00:38:14.949Z,14.50
2023-01-18T00:38:37.629Z,14.63
2023-01-18T00:39:00.400Z,14.60
2023-01-18T00:39:23.185Z,14.98
2023-01-18T00:39:45.925Z,14.00
2023-01-18T00:40:10.105Z,14.05
2023-01-18T00:40:32.799Z,14.98
2023-01-18T00:40:55.560Z,14.73
2023-01-18T00:41:18.270Z,14.68
2023-01-18T00:42:00.854Z,14.20
2023-01-18T00:42:42.194Z,14.38
2023-01-18T00:43:20.430Z,13.55
2023-01-18T00:43:43.348Z,13.32
2023-01-18T00:44:07.115Z,13.70
2023-01-18T00:44:29.812Z,14.13
2023-01-18T00:44:52.653Z,13.40
2023-01-18T00:45:15.628Z,13.27
2023-01-18T00:45:38.424Z,12.93
2023-01-18T00:46:01.233Z,12.60
2023-01-18T00:46:24.658Z,12.77
2023-01-18T00:46:50.118Z,13.00
2023-01-18T00:47:13.633Z,12.80
2023-01-18T00:47:36.334Z,12.95
2023-01-18T00:47:59.076Z,12.80
2023-01-18T00:48:21.922Z,13.18
2023-01-18T00:48:46.087Z,13.20
2023-01-18T00:49:08.926Z,13.38
2023-01-18T00:49:32.030Z,13.25
2023-01-18T00:49:54.713Z,12.93
2023-01-18T00:50:19.731Z,13.20
2023-01-18T00:50:42.451Z,13.27
2023-01-18T00:51:05.879Z,16.13
2023-01-18T00:51:28.657Z,19.65
2023-01-18T00:51:52.251Z,23.23
2023-01-18T00:52:14.975Z,24.00
2023-01-18T00:52:38.563Z,27.67
2023-01-18T00:53:01.302Z,28.52
2023-01-18T00:53:24.043Z,27.90
2023-01-18T00:53:47.690Z,30.40
2023-01-18T00:54:10.471Z,35.88
2023-01-18T00:54:33.179Z,39.78
2023-01-18T00:54:55.919Z,41.05
2023-01-18T00:55:18.663Z,44.67
2023-01-18T00:55:41.388Z,44.05
2023-01-18T00:56:05.036Z,41.75
2023-01-18T00:56:28.823Z,44.20
2023-01-18T00:56:51.489Z,42.80
2023-01-18T00:57:14.127Z,45.20
2023-01-18T00:57:36.868Z,44.55
2023-01-18T00:57:59.623Z,43.40
2023-01-18T00:58:22.683Z,43.22
2023-01-18T00:58:46.563Z,42.22
2023-01-18T00:59:09.493Z,42.10
2023-01-18T00:59:32.301Z,40.15
2023-01-18T00:59:54.999Z,42.53
2023-01-18T01:00:20.645Z,40.90
2023-01-18T01:00:43.454Z,42.28
2023-01-18T01:01:06.617Z,45.78
2023-01-18T01:01:29.557Z,46.70
2023-01-18T01:01:52.611Z,42.00
2023-01-18T01:02:18.126Z,41.38
2023-01-18T01:02:41.217Z,44.50
2023-01-18T01:03:04.010Z,47.75
2023-01-18T01:03:26.811Z,50.50
2023-01-18T01:04:09.779Z,47.03
2023-01-18T01:04:51.439Z,46.50
2023-01-18T01:05:37.389Z,49.92
2023-01-18T01:06:19.504Z,54.70
2023-01-18T01:06:45.755Z,62.35
2023-01-18T01:07:08.870Z,63.45
2023-01-18T01:07:31.669Z,66.40
2023-01-18T01:07:54.399Z,67.97
2023-01-18T01:08:17.792Z,67.30
2023-01-18T01:08:40.554Z,66.50
2023-01-18T01:09:03.350Z,66.60
2023-01-18T01:09:26.770Z,69.22
2023-01-18T01:09:49.441Z,67.25
2023-01-18T01:10:12.167Z,67.30
2023-01-18T01:10:35.672Z,64.72
2023-01-18T01:11:05.910Z,66.93
2023-01-18T01:11:28.538Z,61.33
2023-01-18T01:12:09.756Z,61.17
2023-01-18T01:12:51.013Z,61.83
2023-01-18T01:13:32.660Z,61.70
2023-01-18T01:14:14.025Z,63.67
2023-01-18T01:14:58.014Z,55.28
2023-01-18T01:15:39.059Z,59.13
2023-01-18T01:16:23.891Z,56.53
2023-01-18T01:17:05.363Z,54.97
2023-01-18T01:17:47.621Z,59.03
2023-01-18T01:18:31.973Z,54.90
2023-01-18T01:19:14.740Z,52.35
2023-01-18T01:19:56.220Z,54.53
2023-01-18T01:20:37.773Z,50.80
2023-01-18T01:21:22.671Z,53.20
2023-01-18T01:22:04.189Z,55.17
2023-01-18T01:22:45.411Z,54.08
2023-01-18T01:23:28.054Z,61.83
2023-01-18T01:24:12.240Z,58.80
2023-01-18T01:24:53.880Z,55.80
2023-01-18T01:25:35.329Z,52.47
2023-01-18T01:26:08.016Z,49.75
2023-01-18T01:26:30.889Z,54.90
2023-01-18T01:26:53.528Z,50.88
2023-01-18T01:27:17.634Z,52.42
2023-01-18T01:27:40.638Z,57.58
2023-01-18T01:28:03.415Z,54.47
2023-01-18T01:28:26.145Z,48.15
2023-01-18T01:28:51.140Z,50.83
2023-01-18T01:29:13.927Z,46.53
2023-01-18T01:29:36.674Z,49.38
2023-01-18T01:30:01.570Z,48.72
2023-01-18T01:30:25.117Z,47.38
2023-01-18T01:30:48.009Z,44.40
2023-01-18T01:31:13.444Z,45.10
2023-01-18T01:31:36.151Z,45.90
2023-01-18T01:31:58.896Z,46.55
2023-01-18T01:32:21.852Z,43.60
2023-01-18T01:32:45.288Z,44.47
2023-01-18T01:33:08.071Z,43.78
2023-01-18T01:33:30.938Z,43.65
2023-01-18T01:33:55.109Z,43.17
2023-01-18T01:34:18.031Z,40.38
2023-01-18T01:34:40.748Z,41.88
2023-01-18T01:35:03.709Z,39.70
2023-01-18T01:35:26.335Z,36.85
2023-01-18T01:35:50.288Z,36.92
2023-01-18T01:36:14.096Z,37.38
2023-01-18T01:36:36.928Z,35.58
2023-01-18T01:37:02.055Z,36.28
2023-01-18T01:37:24.884Z,34.70
2023-01-18T01:37:47.613Z,35.75
2023-01-18T01:38:10.514Z,34.70
2023-01-18T01:38:35.464Z,34.47
2023-01-18T01:38:58.118Z,34.60
2023-01-18T01:39:20.838Z,36.38
2023-01-18T01:39:46.363Z,37.70
2023-01-18T01:40:11.334Z,38.20
2023-01-18T01:40:34.063Z,36.25
2023-01-18T01:40:58.094Z,34.40
2023-01-18T01:41:25.634Z,32.15
2023-01-18T01:41:49.189Z,37.65
2023-01-18T01:42:12.011Z,33.97
2023-01-18T01:42:34.706Z,35.17
2023-01-18T01:42:58.016Z,38.15
2023-01-18T01:43:37.439Z,35.80
2023-01-18T01:44:00.810Z,33.25
2023-01-18T01:44:50.282Z,32.00
2023-01-18T01:45:13.388Z,31.15
2023-01-18T01:45:36.093Z,33.10
2023-01-18T01:45:58.995Z,33.95
2023-01-18T01:46:26.760Z,32.03
2023-01-18T01:46:50.887Z,29.45
2023-01-18T01:47:16.515Z,30.90
2023-01-18T01:47:39.949Z,31.55
2023-01-18T01:48:02.701Z,29.20
2023-01-18T01:48:25.455Z,31.15
2023-01-18T01:48:48.432Z,30.17
2023-01-18T01:49:14.575Z,28.77
2023-01-18T01:49:40.339Z,30.02
2023-01-18T01:50:08.218Z,28.17
2023-01-18T01:50:33.444Z,30.90
2023-01-18T01:50:56.159Z,31.92
2023-01-18T01:51:19.963Z,31.58
2023-01-18T01:51:43.753Z,31.23
2023-01-18T01:52:07.214Z,32.20
2023-01-18T01:52:32.846Z,32.00
2023-01-18T01:52:55.883Z,31.13
2023-01-18T01:53:18.991Z,30.25
2023-01-18T01:53:41.669Z,31.98
2023-01-18T01:54:06.600Z,33.63
2023-01-18T01:54:30.687Z,30.98
2023-01-18T01:54:54.733Z,32.72
2023-01-18T01:55:21.503Z,34.00
2023-01-18T01:55:44.305Z,30.17
2023-01-18T01:56:08.822Z,31.63
2023-01-18T01:56:31.534Z,34.30
2023-01-18T01:56:56.300Z,32.25
2023-01-18T01:57:20.030Z,32.38
2023-01-18T01:57:44.325Z,34.17
2023-01-18T01:58:08.063Z,33.05
2023-01-18T01:58:30.963Z,31.42
2023-01-18T01:58:55.249Z,31.92
2023-01-18T01:59:18.910Z,31.15
2023-01-18T01:59:43.054Z,30.95
2023-01-18T02:00:07.228Z,31.85
2023-01-18T02:00:29.906Z,32.25
2023-01-18T02:00:54.336Z,31.05
2023-01-18T02:01:17.727Z,32.15
2023-01-18T02:01:43.963Z,31.15
2023-01-18T02:02:07.197Z,33.17
2023-01-18T02:02:30.612Z,32.60
2023-01-18T02:02:55.074Z,34.83
2023-01-18T02:03:21.107Z,33.47
2023-01-18T02:03:45.140Z,32.25
2023-01-18T02:04:07.943Z,33.72
2023-01-18T02:04:32.049Z,31.98
2023-01-18T02:04:55.549Z,35.08
2023-01-18T02:05:18.388Z,33.58
2023-01-18T02:05:42.482Z,32.63
2023-01-18T02:06:08.934Z,32.30
2023-01-18T02:06:34.239Z,32.35
2023-01-18T02:06:56.954Z,33.45
2023-01-18T02:07:20.503Z,28.25
2023-01-18T02:07:43.233Z,31.00
2023-01-18T02:08:11.377Z,32.35
2023-01-18T02:08:34.082Z,28.02
2023-01-18T02:08:57.438Z,31.73
2023-01-18T02:09:23.432Z,30.35
2023-01-18T02:09:46.194Z,29.90
2023-01-18T02:10:10.360Z,28.77
2023-01-18T02:10:33.131Z,30.08
2023-01-18T02:10:59.060Z,32.45
2023-01-18T02:11:21.783Z,30.95
2023-01-18T02:11:44.544Z,30.38
2023-01-18T02:12:07.365Z,30.75
2023-01-18T02:12:30.177Z,29.45
2023-01-18T02:12:54.896Z,28.45
2023-01-18T02:13:18.331Z,29.38
2023-01-18T02:13:41.043Z,29.15
2023-01-18T02:14:04.486Z,28.90
2023-01-18T02:14:27.275Z,28.85
2023-01-18T02:14:50.034Z,29.70
2023-01-18T02:15:12.977Z,29.23
2023-01-18T02:15:40.523Z,27.23
2023-01-18T02:16:06.446Z,25.13
2023-01-18T02:16:48.060Z,27.15
2023-01-18T02:17:19.363Z,25.52
2023-01-18T02:17:54.085Z,24.90
2023-01-18T02:18:22.920Z,23.63
2023-01-18T02:18:49.623Z,24.42
2023-01-18T02:19:20.493Z,23.58
2023-01-18T02:20:10.993Z,24.45
2023-01-18T02:21:08.980Z,25.75
2023-01-18T02:21:33.215Z,23.25
2023-01-18T02:21:57.124Z,24.90
2023-01-18T02:22:27.228Z,24.55
2023-01-18T02:23:08.061Z,26.58
2023-01-18T02:23:36.273Z,27.70
2023-01-18T02:24:24.693Z,24.52
2023-01-18T02:25:01.213Z,24.98
2023-01-18T02:25:40.574Z,28.85
2023-01-18T02:26:43.998Z,26.48
2023-01-18T02:27:06.803Z,25.73
2023-01-18T02:27:31.868Z,25.52
2023-01-18T02:28:06.928Z,24.85
2023-01-18T02:28:31.054Z,27.60
2023-01-18T02:28:56.310Z,28.13
2023-01-18T02:29:21.359Z,28.42
2023-01-18T02:30:03.262Z,25.73
2023-01-18T02:30:27.224Z,29.10
2023-01-18T02:30:51.216Z,28.33
2023-01-18T02:31:15.246Z,27.10
2023-01-18T02:31:41.274Z,27.00
2023-01-18T02:32:11.206Z,28.02
2023-01-18T02:32:44.648Z,28.50
2023-01-18T02:33:09.116Z,25.95
2023-01-18T02:33:33.128Z,27.50
2023-01-18T02:33:57.913Z,27.70
2023-01-18T02:34:25.927Z,28.88
2023-01-18T02:34:50.723Z,27.20
2023-01-18T02:35:15.586Z,27.92
2023-01-18T02:35:44.338Z,27.30
2023-01-18T02:36:07.215Z,29.20
2023-01-18T02:36:32.158Z,27.23
2023-01-18T02:37:00.147Z,29.83
2023-01-18T02:37:29.293Z,30.52
2023-01-18T02:37:57.489Z,27.00
2023-01-18T02:38:22.318Z,25.70
2023-01-18T02:38:45.776Z,26.15
2023-01-18T02:39:13.289Z,27.98
2023-01-18T02:39:39.843Z,27.10
2023-01-18T02:40:09.119Z,27.25
2023-01-18T02:40:34.348Z,26.70
2023-01-18T02:41:05.439Z,27.67
2023-01-18T02:41:50.579Z,26.30
2023-01-18T02:42:38.255Z,24.35
2023-01-18T02:43:20.079Z,25.45
2023-01-18T02:44:00.124Z,25.83
2023-01-18T02:44:44.153Z,24.77
2023-01-18T02:45:28.201Z,24.88
2023-01-18T02:46:09.218Z,24.73
2023-01-18T02:46:34.313Z,25.48
2023-01-18T02:46:57.147Z,26.17
2023-01-18T02:47:19.879Z,26.92
2023-01-18T02:47:43.252Z,25.80
2023-01-18T02:48:06.341Z,25.13
2023-01-18T02:48:32.398Z,24.73
2023-01-18T02:48:56.210Z,23.50
2023-01-18T02:49:21.037Z,26.33
2023-01-18T02:49:43.820Z,24.65
2023-01-18T02:50:07.127Z,25.25
2023-01-18T02:50:30.045Z,24.48
2023-01-18T02:50:52.773Z,24.20
2023-01-18T02:51:15.647Z,25.73
2023-01-18T02:51:38.513Z,25.30
2023-01-18T02:52:02.108Z,26.55
2023-01-18T02:52:41.083Z,25.42
2023-01-18T02:53:03.836Z,23.98
2023-01-18T02:53:26.554Z,25.58
2023-01-18T02:53:49.323Z,26.73
2023-01-18T02:54:13.230Z,24.38
2023-01-18T02:54:36.817Z,27.65
2023-01-18T02:54:59.553Z,27.20
2023-01-18T02:55:28.649Z,26.45
2023-01-18T02:55:53.216Z,27.38
2023-01-18T02:56:17.451Z,27.05
2023-01-18T02:56:41.607Z,25.92
2023-01-18T02:57:06.223Z,26.73
2023-01-18T02:57:28.944Z,26.65
2023-01-18T02:57:52.793Z,27.38
2023-01-18T02:58:19.289Z,26.60
2023-01-18T02:58:44.839Z,27.48
2023-01-18T02:59:10.262Z,27.60
2023-01-18T02:59:35.049Z,29.00
2023-01-18T02:59:57.749Z,30.42
2023-01-18T03:00:23.483Z,28.65
2023-01-18T03:00:49.113Z,26.63
2023-01-18T03:01:15.432Z,26.27
2023-01-18T03:01:41.659Z,27.90
2023-01-18T03:02:06.035Z,26.48
2023-01-18T03:02:28.963Z,26.63
2023-01-18T03:02:51.683Z,27.80
2023-01-18T03:03:14.424Z,29.48
2023-01-18T03:03:37.113Z,28.25
2023-01-18T03:04:01.608Z,26.83
2023-01-18T03:04:26.548Z,23.73
2023-01-18T03:04:55.876Z,25.67
2023-01-18T03:05:19.149Z,25.67
2023-01-18T03:05:41.883Z,27.27
2023-01-18T03:06:05.766Z,26.05
2023-01-18T03:06:29.069Z,25.20
2023-01-18T03:06:53.623Z,25.95
2023-01-18T03:07:18.090Z,26.27
2023-01-18T03:07:43.423Z,25.85
2023-01-18T03:08:09.608Z,24.13
2023-01-18T03:08:36.423Z,25.08
2023-01-18T03:08:59.429Z,25.17
2023-01-18T03:09:27.357Z,23.48
2023-01-18T03:09:50.328Z,24.17
2023-01-18T03:10:14.014Z,25.50
2023-01-18T03:10:39.648Z,23.70
2023-01-18T03:11:04.156Z,24.98
2023-01-18T03:11:33.149Z,24.50
2023-01-18T03:11:59.213Z,21.70
2023-01-18T03:12:25.023Z,23.30
2023-01-18T03:12:51.204Z,22.98
2023-01-18T03:13:16.174Z,24.63
2023-01-18T03:13:57.625Z,23.50
2023-01-18T03:14:22.884Z,22.33
2023-01-18T03:14:50.248Z,22.90
2023-01-18T03:15:14.107Z,22.83
2023-01-18T03:15:39.968Z,24.35
2023-01-18T03:16:06.422Z,24.42
2023-01-18T03:16:39.776Z,22.75
2023-01-18T03:17:05.910Z,23.10
2023-01-18T03:17:31.933Z,22.75
2023-01-18T03:17:57.463Z,22.73
2023-01-18T03:18:22.788Z,22.70
2023-01-18T03:19:04.280Z,23.90
2023-01-18T03:19:52.488Z,24.55
2023-01-18T03:20:16.218Z,21.13
2023-01-18T03:20:41.453Z,21.00
2023-01-18T03:21:05.785Z,21.58
2023-01-18T03:21:41.122Z,21.60
2023-01-18T03:22:04.377Z,21.75
2023-01-18T03:22:47.821Z,22.08
2023-01-18T03:23:30.157Z,22.85
2023-01-18T03:23:52.849Z,20.92
2023-01-18T03:24:15.988Z,21.58
2023-01-18T03:24:41.470Z,21.40
2023-01-18T03:25:04.526Z,21.85
2023-01-18T03:25:29.481Z,21.80
2023-01-18T03:25:55.053Z,22.10
2023-01-18T03:26:19.049Z,21.55
2023-01-18T03:26:43.244Z,21.65
2023-01-18T03:27:24.275Z,22.70
2023-01-18T03:28:06.260Z,21.92
2023-01-18T03:28:49.151Z,23.33
2023-01-18T03:29:31.876Z,21.98
2023-01-18T03:30:13.545Z,22.55
2023-01-18T03:30:54.888Z,22.27
2023-01-18T03:31:37.187Z,22.67
2023-01-18T03:32:20.351Z,22.17
2023-01-18T03:33:01.488Z,22.08
2023-01-18T03:33:43.533Z,22.45
2023-01-18T03:34:10.107Z,23.33
2023-01-18T03:34:34.965Z,23.50
2023-01-18T03:34:59.336Z,24.65
2023-01-18T03:35:26.956Z,24.15
2023-01-18T03:35:49.788Z,23.98
2023-01-18T03:36:16.982Z,24.58
2023-01-18T03:36:41.314Z,25.08
2023-01-18T03:37:05.359Z,25.08
2023-01-18T03:37:29.733Z,25.35
2023-01-18T03:37:54.424Z,27.42
2023-01-18T03:38:17.133Z,27.83
2023-01-18T03:38:40.439Z,26.52
2023-01-18T03:39:05.477Z,25.85
2023-01-18T03:39:30.829Z,25.35
2023-01-18T03:39:54.993Z,27.63
2023-01-18T03:40:18.653Z,27.50
2023-01-18T03:40:41.453Z,27.00
2023-01-18T03:41:04.270Z,28.20
2023-01-18T03:41:29.588Z,27.55
2023-01-18T03:41:54.506Z,30.92
2023-01-18T03:42:20.595Z,30.60
2023-01-18T03:42:45.493Z,30.05
2023-01-18T03:43:10.802Z,31.15
2023-01-18T03:43:36.583Z,26.88
2023-01-18T03:44:02.232Z,29.17
2023-01-18T03:44:29.650Z,28.92
2023-01-18T03:44:56.000Z,28.73
2023-01-18T03:45:22.746Z,27.83
2023-01-18T03:45:46.624Z,27.60
2023-01-18T03:46:09.426Z,27.67
2023-01-18T03:46:32.566Z,27.85
2023-01-18T03:46:55.568Z,27.15
2023-01-18T03:47:18.338Z,27.05
2023-01-18T03:47:41.023Z,28.98
2023-01-18T03:48:03.913Z,32.45
2023-01-18T03:48:26.657Z,32.80
2023-01-18T03:48:49.293Z,35.25
2023-01-18T03:49:11.989Z,33.78
2023-01-18T03:49:34.843Z,32.50
2023-01-18T03:49:58.313Z,34.33
2023-01-18T03:50:21.709Z,35.80
2023-01-18T03:50:48.963Z,34.00
2023-01-18T03:51:15.938Z,33.60
2023-01-18T03:51:47.504Z,36.92
2023-01-18T03:52:17.031Z,37.60
2023-01-18T03:52:42.078Z,35.75
2023-01-18T03:53:06.918Z,34.85
2023-01-18T03:53:32.976Z,36.90
2023-01-18T03:53:59.553Z,36.30
2023-01-18T03:54:27.273Z,35.53
2023-01-18T03:54:57.133Z,36.47
2023-01-18T03:55:23.254Z,34.75
2023-01-18T03:55:49.147Z,36.22
2023-01-18T03:56:16.115Z,36.55
2023-01-18T03:56:42.603Z,38.13
2023-01-18T03:57:08.264Z,34.00
2023-01-18T03:57:33.424Z,33.90
2023-01-18T03:57:59.816Z,34.78
2023-01-18T03:58:24.818Z,34.17
2023-01-18T03:58:47.551Z,36.75
2023-01-18T03:59:10.252Z,33.45
2023-01-18T03:59:36.049Z,36.03
2023-01-18T03:59:58.746Z,36.75
2023-01-18T04:00:21.653Z,35.47
2023-01-18T04:00:44.526Z,36.10
2023-01-18T04:01:07.483Z,34.90
2023-01-18T04:01:31.018Z,34.60
2023-01-18T04:01:53.916Z,33.25
2023-01-18T04:02:16.955Z,32.97
2023-01-18T04:02:39.873Z,30.60
2023-01-18T04:03:02.821Z,34.25
2023-01-18T04:03:25.609Z,32.80
2023-01-18T04:03:48.368Z,30.75
2023-01-18T04:04:11.476Z,32.75
2023-01-18T04:04:34.134Z,31.17
2023-01-18T04:04:58.747Z,28.35
2023-01-18T04:05:21.719Z,29.52
2023-01-18T04:05:44.449Z,28.98
2023-01-18T04:06:07.523Z,27.67
2023-01-18T04:06:30.193Z,28.55
2023-01-18T04:06:52.955Z,29.98
2023-01-18T04:07:16.716Z,29.23
2023-01-18T04:07:39.461Z,30.38
2023-01-18T04:08:02.149Z,30.05
2023-01-18T04:08:24.965Z,27.83
2023-01-18T04:08:47.744Z,27.70
2023-01-18T04:09:12.196Z,29.02
2023-01-18T04:09:35.039Z,26.30
2023-01-18T04:09:57.848Z,27.05
2023-01-18T04:10:20.699Z,26.13
2023-01-18T04:10:43.393Z,24.75
2023-01-18T04:11:06.344Z,23.75
2023-01-18T04:11:29.158Z,23.63
2023-01-18T04:11:51.920Z,25.67
2023-01-18T04:12:14.700Z,24.73
2023-01-18T04:12:37.454Z,24.73
2023-01-18T04:13:00.607Z,23.75
2023-01-18T04:13:23.728Z,22.55
2023-01-18T04:13:46.537Z,22.00
2023-01-18T04:14:09.249Z,22.65
2023-01-18T04:14:31.926Z,23.00
2023-01-18T04:14:59.388Z,21.30
2023-01-18T04:15:22.409Z,23.52
2023-01-18T04:15:45.218Z,22.05
2023-01-18T04:16:08.204Z,21.55
2023-01-18T04:16:30.993Z,21.60
2023-01-18T04:16:53.769Z,21.80
2023-01-18T04:17:17.313Z,22.40
2023-01-18T04:17:40.025Z,21.77
2023-01-18T04:18:02.854Z,20.48
2023-01-18T04:18:26.149Z,19.20
2023-01-18T04:18:48.883Z,19.67
2023-01-18T04:19:11.697Z,19.20
2023-01-18T04:19:34.344Z,18.55
2023-01-18T04:19:57.008Z,19.17
2023-01-18T04:20:19.700Z,20.08
2023-01-18T04:20:42.378Z,20.42
2023-01-18T04:21:05.533Z,19.45
2023-01-18T04:21:28.340Z,18.35
2023-01-18T04:21:51.021Z,18.50
2023-01-18T04:22:14.096Z,18.98
2023-01-18T04:22:36.731Z,18.73
2023-01-18T04:22:59.724Z,18.35
2023-01-18T04:23:24.031Z,18.38
2023-01-18T04:23:46.796Z,17.85
2023-01-18T04:24:09.724Z,18.77
2023-01-18T04:24:32.383Z,19.60
2023-01-18T04:24:55.127Z,18.60
2023-01-18T04:25:17.863Z,18.80
2023-01-18T04:25:41.038Z,18.88
2023-01-18T04:26:03.916Z,19.05
2023-01-18T04:26:26.708Z,18.80
2023-01-18T04:26:49.389Z,19.02
2023-01-18T04:27:12.155Z,19.33
2023-01-18T04:27:34.891Z,20.50
2023-01-18T04:27:57.608Z,20.42
2023-01-18T04:28:28.970Z,18.88
2023-01-18T04:28:51.711Z,21.00
2023-01-18T04:29:14.416Z,21.50
2023-01-18T04:29:37.114Z,21.50
2023-01-18T04:30:01.369Z,21.58
2023-01-18T04:30:24.191Z,22.13
2023-01-18T04:30:49.882Z,23.42
2023-01-18T04:31:12.665Z,22.92
2023-01-18T04:31:35.525Z,22.17
2023-01-18T04:31:58.395Z,22.13
2023-01-18T04:32:22.304Z,21.23
2023-01-18T04:32:46.398Z,21.63
2023-01-18T04:33:09.323Z,22.08
2023-01-18T04:33:32.049Z,23.90
2023-01-18T04:33:54.834Z,25.02
2023-01-18T04:34:17.581Z,28.38
2023-01-18T04:34:40.320Z,25.80
2023-01-18T04:35:03.180Z,24.55
2023-01-18T04:35:25.943Z,24.55
2023-01-18T04:35:48.701Z,24.95
2023-01-18T04:36:11.462Z,24.48
2023-01-18T04:36:36.970Z,24.40
2023-01-18T04:36:59.720Z,23.98
2023-01-18T04:37:30.562Z,24.23
2023-01-18T04:37:53.458Z,25.10
2023-01-18T04:38:16.139Z,26.48
2023-01-18T04:38:38.898Z,24.23
2023-01-18T04:39:01.630Z,26.55
2023-01-18T04:39:24.335Z,27.42
2023-01-18T04:39:47.799Z,25.83
2023-01-18T04:40:12.493Z,24.25
2023-01-18T04:40:35.304Z,27.05
2023-01-18T04:41:02.734Z,27.27
2023-01-18T04:41:25.485Z,36.67
2023-01-18T04:41:48.288Z,28.75
2023-01-18T04:42:10.990Z,27.33
2023-01-18T04:42:33.779Z,28.48
2023-01-18T04:42:56.801Z,31.27
2023-01-18T04:43:19.896Z,35.35
2023-01-18T04:43:43.003Z,28.42
2023-01-18T04:44:05.778Z,26.58
2023-01-18T04:44:28.592Z,27.08
2023-01-18T04:44:51.387Z,25.45
2023-01-18T04:45:18.294Z,23.67
2023-01-18T04:45:41.289Z,25.63
2023-01-18T04:46:04.109Z,26.70
2023-01-18T04:46:27.424Z,23.83
2023-01-18T04:46:51.150Z,24.58
2023-01-18T04:47:14.049Z,25.10
2023-01-18T04:47:36.800Z,24.35
2023-01-18T04:48:02.024Z,25.08
2023-01-18T04:48:24.788Z,24.25
2023-01-18T04:48:51.069Z,26.70
2023-01-18T04:49:15.651Z,26.85
2023-01-18T04:49:38.574Z,28.40
2023-01-18T04:50:01.424Z,27.73
2023-01-18T04:50:24.143Z,26.92
2023-01-18T04:50:48.822Z,33.17
2023-01-18T04:51:14.164Z,31.38
2023-01-18T04:51:38.315Z,28.90
2023-01-18T04:52:00.988Z,29.75
2023-01-18T04:52:23.699Z,26.10
2023-01-18T04:52:46.409Z,28.73
2023-01-18T04:53:09.129Z,26.67
2023-01-18T04:53:31.953Z,26.02
2023-01-18T04:53:55.763Z,26.83
2023-01-18T04:54:19.418Z,26.40
2023-01-18T04:54:42.149Z,25.23
2023-01-18T04:55:06.248Z,24.88
2023-01-18T04:55:28.966Z,25.33
2023-01-18T04:55:51.693Z,24.83
2023-01-18T04:56:14.590Z,24.98
2023-01-18T04:56:37.337Z,25.85
2023-01-18T04:57:00.034Z,25.63
2023-01-18T04:57:22.733Z,25.05
2023-01-18T04:57:45.668Z,28.65
2023-01-18T04:58:08.387Z,27.75
2023-01-18T04:58:31.114Z,25.70
2023-01-18T04:58:54.670Z,25.73
2023-01-18T04:59:18.557Z,25.15
2023-01-18T04:59:46.129Z,26.98
2023-01-18T05:00:11.289Z,27.35
2023-01-18T05:00:35.719Z,26.25
2023-01-18T05:01:01.866Z,27.90
2023-01-18T05:01:24.859Z,33.05
2023-01-18T05:01:47.787Z,35.92
2023-01-18T05:02:10.543Z,36.30
2023-01-18T05:02:33.374Z,34.00
2023-01-18T05:02:56.398Z,34.20
2023-01-18T05:03:20.209Z,35.78
2023-01-18T05:03:42.873Z,37.15
2023-01-18T05:04:05.736Z,29.55
2023-01-18T05:04:28.489Z,30.80
2023-01-18T05:04:51.304Z,38.63
2023-01-18T05:05:14.089Z,44.17
2023-01-18T05:05:36.838Z,36.95
2023-01-18T05:05:59.529Z,39.67
2023-01-18T05:06:24.647Z,31.83
2023-01-18T05:06:48.718Z,34.13
2023-01-18T05:07:18.415Z,31.60
2023-01-18T05:07:44.256Z,31.65
2023-01-18T05:08:07.050Z,32.53
2023-01-18T05:08:29.721Z,35.85
2023-01-18T05:08:52.612Z,31.50
2023-01-18T05:09:15.525Z,29.15
2023-01-18T05:09:38.328Z,39.55
2023-01-18T05:10:01.118Z,39.88
2023-01-18T05:10:23.878Z,33.45
2023-01-18T05:10:46.596Z,40.10
2023-01-18T05:11:10.874Z,42.88
2023-01-18T05:11:33.614Z,41.03
2023-01-18T05:11:56.268Z,36.03
2023-01-18T05:12:19.994Z,31.10
2023-01-18T05:12:43.063Z,30.70
2023-01-18T05:13:06.054Z,35.47
2023-01-18T05:13:28.753Z,32.78
2023-01-18T05:13:51.534Z,29.77
2023-01-18T05:14:14.353Z,31.85
2023-01-18T05:14:37.132Z,32.63
2023-01-18T05:14:59.953Z,33.13
2023-01-18T05:15:22.714Z,33.58
2023-01-18T05:15:46.888Z,31.30
2023-01-18T05:16:13.716Z,33.20
2023-01-18T05:16:36.518Z,34.28
2023-01-18T05:16:59.504Z,34.53
2023-01-18T05:17:24.647Z,32.92
2023-01-18T05:17:47.374Z,35.63
2023-01-18T05:18:10.149Z,36.17
2023-01-18T05:18:32.935Z,33.17
2023-01-18T05:18:57.745Z,34.15
2023-01-18T05:19:20.513Z,30.42
2023-01-18T05:19:43.223Z,29.88
2023-01-18T05:20:08.829Z,29.58
2023-01-18T05:20:32.650Z,29.88
2023-01-18T05:20:55.323Z,29.90
2023-01-18T05:21:18.062Z,36.05
2023-01-18T05:21:41.595Z,33.40
2023-01-18T05:22:04.344Z,30.45
2023-01-18T05:22:28.123Z,33.28
2023-01-18T05:22:50.846Z,38.28
2023-01-18T05:23:14.737Z,37.97
2023-01-18T05:23:39.053Z,36.38
2023-01-18T05:24:01.765Z,37.90
2023-01-18T05:24:24.519Z,31.52
2023-01-18T05:24:47.248Z,32.08
2023-01-18T05:25:10.249Z,31.48
2023-01-18T05:25:33.026Z,33.22
2023-01-18T05:25:56.168Z,30.77
2023-01-18T05:26:22.795Z,32.30
2023-01-18T05:26:45.627Z,33.10
2023-01-18T05:27:08.391Z,36.45
2023-01-18T05:27:31.099Z,32.97
2023-01-18T05:27:53.792Z,35.10
2023-01-18T05:28:16.497Z,40.10